sensor_id;sensor_type;location;lat;lon;timestamp;pressure;altitude;pressure_sealevel;temperature;humidity
43838;BME280;65998;46.256;7.534;2023-04-01T00:01:15;86220.81;;;18.49;45.43
43838;BME280;65998;46.256;7.534;2023-04-01T00:03:42;86218.91;;;18.46;45.56
43838;BME280;65998;46.256;7.534;2023-04-01T00:06:11;86222.81;;;18.51;45.46
43838;BME280;65998;46.256;7.534;2023-04-01T00:08:38;86234.94;;;18.45;45.34
43838;BME280;65998;46.256;7.534;2023-04-01T00:11:04;86246.06;;;18.45;45.33
43838;BME280;65998;46.256;7.534;2023-04-01T00:13:30;86240.59;;;18.43;45.34
43838;BME280;65998;46.256;7.534;2023-04-01T00:15:56;86241.25;;;18.44;45.43
43838;BME280;65998;46.256;7.534;2023-04-01T00:18:22;86242.59;;;18.45;45.67
43838;BME280;65998;46.256;7.534;2023-04-01T00:20:50;86243.28;;;18.45;45.75
43838;BME280;65998;46.256;7.534;2023-04-01T00:23:17;86241.25;;;18.44;45.83
43838;BME280;65998;46.256;7.534;2023-04-01T00:25:44;86242.59;;;18.45;45.67
43838;BME280;65998;46.256;7.534;2023-04-01T00:28:11;86246.16;;;18.43;45.74
43838;BME280;65998;46.256;7.534;2023-04-01T00:30:37;86241.47;;;18.40;46.15
43838;BME280;65998;46.256;7.534;2023-04-01T00:33:03;86241.47;;;18.40;45.97
43838;BME280;65998;46.256;7.534;2023-04-01T00:35:30;86249.13;;;18.39;45.90
43838;BME280;65998;46.256;7.534;2023-04-01T00:37:56;86240.91;;;18.37;45.93
43838;BME280;65998;46.256;7.534;2023-04-01T00:40:33;86239.34;;;18.40;45.70
43838;BME280;65998;46.256;7.534;2023-04-01T00:43:01;86245.22;;;18.34;45.82
43838;BME280;65998;46.256;7.534;2023-04-01T00:45:32;86249.44;;;18.33;45.74
43838;BME280;65998;46.256;7.534;2023-04-01T00:48:03;86243.22;;;18.33;45.62
43838;BME280;65998;46.256;7.534;2023-04-01T00:50:30;86244.66;;;18.32;45.57
43838;BME280;65998;46.256;7.534;2023-04-01T00:52:58;86243.97;;;18.31;45.65
43838;BME280;65998;46.256;7.534;2023-04-01T00:55:25;86238.50;;;18.29;46.05
43838;BME280;65998;46.256;7.534;2023-04-01T00:57:54;86237.84;;;18.29;45.72
43838;BME280;65998;46.256;7.534;2023-04-01T01:00:22;86238.03;;;18.25;45.79
43838;BME280;65998;46.256;7.534;2023-04-01T01:02:50;86228.84;;;18.28;45.55
43838;BME280;65998;46.256;7.534;2023-04-01T01:05:17;86233.81;;;18.26;45.66
43838;BME280;65998;46.256;7.534;2023-04-01T01:08:01;86229.81;;;18.23;45.47
43838;BME280;65998;46.256;7.534;2023-04-01T01:10:36;86213.38;;;18.31;45.55
43838;BME280;65998;46.256;7.534;2023-04-01T01:13:21;86214.16;;;18.30;45.30
43838;BME280;65998;46.256;7.534;2023-04-01T01:16:27;86210.69;;;18.29;45.38
43838;BME280;65998;46.256;7.534;2023-04-01T01:19:30;86209.38;;;18.28;45.46
43838;BME280;65998;46.256;7.534;2023-04-01T01:27:40;86204.78;;;18.23;45.38
43838;BME280;65998;46.256;7.534;2023-04-01T01:30:17;86200.00;;;18.21;45.30
43838;BME280;65998;46.256;7.534;2023-04-01T01:32:55;86206.88;;;18.22;45.28
43838;BME280;65998;46.256;7.534;2023-04-01T01:38:44;86220.13;;;18.22;45.38
43838;BME280;65998;46.256;7.534;2023-04-01T01:40:52;86227.03;;;18.23;45.20
43838;BME280;65998;46.256;7.534;2023-04-01T01:43:22;86225.69;;;18.22;45.21
43838;BME280;65998;46.256;7.534;2023-04-01T01:45:54;86215.31;;;18.20;45.32
43838;BME280;65998;46.256;7.534;2023-04-01T01:48:24;86207.75;;;18.18;45.56
43838;BME280;65998;46.256;7.534;2023-04-01T01:50:52;86206.63;;;18.13;45.57
43838;BME280;65998;46.256;7.534;2023-04-01T01:53:18;86199.72;;;18.12;45.79
43838;BME280;65998;46.256;7.534;2023-04-01T01:55:46;86187.81;;;18.14;45.67
43838;BME280;65998;46.256;7.534;2023-04-01T01:58:25;86184.28;;;18.15;45.61
43838;BME280;65998;46.256;7.534;2023-04-01T02:00:58;86183.03;;;18.12;45.76
43838;BME280;65998;46.256;7.534;2023-04-01T02:03:27;86190.72;;;18.12;45.46
43838;BME280;65998;46.256;7.534;2023-04-01T02:05:57;86187.94;;;18.12;45.74
43838;BME280;65998;46.256;7.534;2023-04-01T02:08:35;86188.69;;;18.10;45.83
43838;BME280;65998;46.256;7.534;2023-04-01T02:11:07;86209.59;;;18.09;45.74
43838;BME280;65998;46.256;7.534;2023-04-01T02:13:39;86215.25;;;18.07;45.86
43838;BME280;65998;46.256;7.534;2023-04-01T02:16:14;86211.13;;;18.06;45.81
43838;BME280;65998;46.256;7.534;2023-04-01T02:18:44;86217.94;;;18.09;45.95
43838;BME280;65998;46.256;7.534;2023-04-01T02:21:12;86213.91;;;18.06;45.87
43838;BME280;65998;46.256;7.534;2023-04-01T02:23:38;86202.22;;;18.04;45.81
43838;BME280;65998;46.256;7.534;2023-04-01T02:26:07;86210.38;;;18.08;45.80
43838;BME280;65998;46.256;7.534;2023-04-01T02:28:37;86197.91;;;18.07;46.21
43838;BME280;65998;46.256;7.534;2023-04-01T02:31:04;86210.09;;;17.99;45.99
43838;BME280;65998;46.256;7.534;2023-04-01T02:33:30;86204.53;;;17.99;45.78
43838;BME280;65998;46.256;7.534;2023-04-01T02:35:58;86205.22;;;18.00;45.85
43838;BME280;65998;46.256;7.534;2023-04-01T02:38:24;86201.84;;;17.97;45.75
43838;BME280;65998;46.256;7.534;2023-04-01T02:40:57;86202.53;;;17.98;45.72
43838;BME280;65998;46.256;7.534;2023-04-01T02:43:23;86204.53;;;17.99;45.87
43838;BME280;65998;46.256;7.534;2023-04-01T02:45:49;86204.06;;;17.95;45.85
43838;BME280;65998;46.256;7.534;2023-04-01T02:48:14;86206.75;;;17.97;45.68
43838;BME280;65998;46.256;7.534;2023-04-01T02:50:40;86196.28;;;17.97;45.63
43838;BME280;65998;46.256;7.534;2023-04-01T02:53:06;86199.94;;;17.94;45.47
43838;BME280;65998;46.256;7.534;2023-04-01T02:55:33;86196.97;;;17.98;45.65
43838;BME280;65998;46.256;7.534;2023-04-01T02:57:59;86199.94;;;17.94;45.65
43838;BME280;65998;46.256;7.534;2023-04-01T03:00:26;86200.63;;;17.94;45.63
43838;BME280;65998;46.256;7.534;2023-04-01T03:02:52;86201.97;;;17.95;45.59
43838;BME280;65998;46.256;7.534;2023-04-01T03:05:19;86200.50;;;17.96;45.49
43838;BME280;65998;46.256;7.534;2023-04-01T03:07:46;86200.50;;;17.96;45.54
43838;BME280;65998;46.256;7.534;2023-04-01T03:10:12;86206.84;;;17.95;45.42
43838;BME280;65998;46.256;7.534;2023-04-01T03:12:38;86197.25;;;17.92;45.53
43838;BME280;65998;46.256;7.534;2023-04-01T03:15:05;86194.97;;;17.96;45.48
43838;BME280;65998;46.256;7.534;2023-04-01T03:17:30;86186.16;;;17.92;46.12
43838;BME280;65998;46.256;7.534;2023-04-01T03:19:56;86185.47;;;17.91;45.99
43838;BME280;65998;46.256;7.534;2023-04-01T03:22:22;86168.81;;;17.91;45.99
43838;BME280;65998;46.256;7.534;2023-04-01T03:24:48;86166.59;;;17.94;46.15
43838;BME280;65998;46.256;7.534;2023-04-01T03:27:14;86161.69;;;17.94;45.91
43838;BME280;65998;46.256;7.534;2023-04-01T03:29:40;86161.03;;;17.94;45.78
43838;BME280;65998;46.256;7.534;2023-04-01T03:32:06;86167.94;;;17.95;45.48
43838;BME280;65998;46.256;7.534;2023-04-01T03:34:32;86150.59;;;17.94;45.77
43838;BME280;65998;46.256;7.534;2023-04-01T03:36:58;86158.25;;;17.94;45.68
43838;BME280;65998;46.256;7.534;2023-04-01T03:39:24;86155.38;;;17.96;45.72
43838;BME280;65998;46.256;7.534;2023-04-01T03:41:50;86143.59;;;17.95;45.67
43838;BME280;65998;46.256;7.534;2023-04-01T03:44:16;86140.13;;;17.95;45.66
43838;BME280;65998;46.256;7.534;2023-04-01T03:46:42;86144.34;;;17.94;45.59
43838;BME280;65998;46.256;7.534;2023-04-01T03:49:11;86141.94;;;18.00;45.55
43838;BME280;65998;46.256;7.534;2023-04-01T03:51:41;86143.38;;;17.99;45.49
43838;BME280;65998;46.256;7.534;2023-04-01T03:54:09;86153.94;;;17.97;45.63
43838;BME280;65998;46.256;7.534;2023-04-01T03:56:35;86141.69;;;17.92;45.52
43838;BME280;65998;46.256;7.534;2023-04-01T03:59:06;86142.72;;;17.99;45.48
43838;BME280;65998;46.256;7.534;2023-04-01T04:01:32;86143.78;;;17.91;45.55
43838;BME280;65998;46.256;7.534;2023-04-01T04:03:58;86141.78;;;17.90;45.47
43838;BME280;65998;46.256;7.534;2023-04-01T04:06:25;86136.78;;;17.92;45.34
43838;BME280;65998;46.256;7.534;2023-04-01T04:08:52;86132.78;;;17.89;45.59
43838;BME280;65998;46.256;7.534;2023-04-01T04:11:19;86137.34;;;17.95;45.62
43838;BME280;65998;46.256;7.534;2023-04-01T04:13:45;86136.13;;;17.92;45.75
43838;BME280;65998;46.256;7.534;2023-04-01T04:16:11;86141.78;;;17.90;45.62
43838;BME280;65998;46.256;7.534;2023-04-01T04:18:37;86140.44;;;17.89;45.62
43838;BME280;65998;46.256;7.534;2023-04-01T04:21:03;86129.22;;;17.91;45.86
43838;BME280;65998;46.256;7.534;2023-04-01T04:23:29;86125.88;;;17.88;45.87
43838;BME280;65998;46.256;7.534;2023-04-01T04:26:04;86124.91;;;17.94;45.67
43838;BME280;65998;46.256;7.534;2023-04-01T04:28:31;86125.78;;;17.90;45.62
43838;BME280;65998;46.256;7.534;2023-04-01T04:30:58;86128.56;;;17.90;45.84
43838;BME280;65998;46.256;7.534;2023-04-01T04:33:24;86117.44;;;17.90;45.79
43838;BME280;65998;46.256;7.534;2023-04-01T04:35:54;86105.53;;;17.92;45.59
43838;BME280;65998;46.256;7.534;2023-04-01T04:38:20;86098.09;;;17.88;45.61
43838;BME280;65998;46.256;7.534;2023-04-01T04:40:46;86105.75;;;17.88;45.71
43838;BME280;65998;46.256;7.534;2023-04-01T04:43:14;86105.66;;;17.90;45.61
43838;BME280;65998;46.256;7.534;2023-04-01T04:45:41;86111.31;;;17.88;45.60
43838;BME280;65998;46.256;7.534;2023-04-01T04:48:08;86125.78;;;17.90;45.81
43838;BME280;65998;46.256;7.534;2023-04-01T04:50:34;86134.97;;;17.86;45.74
43838;BME280;65998;46.256;7.534;2023-04-01T04:53:00;86132.88;;;17.87;45.49
43838;BME280;65998;46.256;7.534;2023-04-01T04:55:26;86132.19;;;17.86;45.68
43838;BME280;65998;46.256;7.534;2023-04-01T04:57:52;86136.41;;;17.85;45.85
43838;BME280;65998;46.256;7.534;2023-04-01T05:00:18;86127.31;;;17.87;45.79
43838;BME280;65998;46.256;7.534;2023-04-01T05:02:44;86126.06;;;17.84;45.52
43838;BME280;65998;46.256;7.534;2023-04-01T05:05:09;86140.53;;;17.86;45.53
43838;BME280;65998;46.256;7.534;2023-04-01T05:07:35;86132.88;;;17.87;45.58
43838;BME280;65998;46.256;7.534;2023-04-01T05:10:01;86114.75;;;17.88;45.74
43838;BME280;65998;46.256;7.534;2023-04-01T05:12:27;86113.31;;;17.89;45.50
43838;BME280;65998;46.256;7.534;2023-04-01T05:14:53;86109.19;;;17.88;45.53
43838;BME280;65998;46.256;7.534;2023-04-01T05:17:20;86116.88;;;17.88;45.56
43838;BME280;65998;46.256;7.534;2023-04-01T05:19:45;86113.41;;;17.87;45.53
43838;BME280;65998;46.256;7.534;2023-04-01T05:22:11;86113.41;;;17.87;45.63
43838;BME280;65998;46.256;7.534;2023-04-01T05:24:37;86115.44;;;17.89;46.09
43838;BME280;65998;46.256;7.534;2023-04-01T05:27:03;86133.53;;;17.88;46.04
43838;BME280;65998;46.256;7.534;2023-04-01T05:29:28;86137.75;;;17.86;46.16
43838;BME280;65998;46.256;7.534;2023-04-01T05:31:54;86140.63;;;17.84;46.18
43838;BME280;65998;46.256;7.534;2023-04-01T05:34:20;86150.63;;;17.79;46.29
43838;BME280;65998;46.256;7.534;2023-04-01T05:36:46;86148.72;;;17.76;46.61
43838;BME280;65998;46.256;7.534;2023-04-01T05:39:12;86144.03;;;17.72;46.74
43838;BME280;65998;46.256;7.534;2023-04-01T05:41:38;86148.34;;;17.69;46.78
43838;BME280;65998;46.256;7.534;2023-04-01T05:44:04;86131.81;;;17.65;46.87
43838;BME280;65998;46.256;7.534;2023-04-01T05:46:31;86124.91;;;17.64;47.14
43838;BME280;65998;46.256;7.534;2023-04-01T05:48:57;86119.00;;;17.58;46.93
43838;BME280;65998;46.256;7.534;2023-04-01T05:51:23;86120.53;;;17.54;47.05
43838;BME280;65998;46.256;7.534;2023-04-01T05:53:49;86101.38;;;17.48;47.22
43838;BME280;65998;46.256;7.534;2023-04-01T05:56:15;86116.69;;;17.47;47.30
43838;BME280;65998;46.256;7.534;2023-04-01T05:58:41;86114.78;;;17.44;47.26
43838;BME280;65998;46.256;7.534;2023-04-01T06:01:10;86109.03;;;17.48;47.32
43838;BME280;65998;46.256;7.534;2023-04-01T06:03:36;86129.53;;;17.40;47.50
43838;BME280;65998;46.256;7.534;2023-04-01T06:06:03;86131.66;;;17.40;47.62
43838;BME280;65998;46.256;7.534;2023-04-01T06:08:32;86141.63;;;17.35;48.40
43838;BME280;65998;46.256;7.534;2023-04-01T06:19:30;86144.00;;;17.58;47.97
43838;BME280;65998;46.256;7.534;2023-04-01T06:24:53;86146.97;;;17.83;47.68
43838;BME280;65998;46.256;7.534;2023-04-01T06:35:14;86165.19;;;18.22;47.61
43838;BME280;65998;46.256;7.534;2023-04-01T06:46:16;86171.88;;;18.55;47.45
43838;BME280;65998;46.256;7.534;2023-04-01T06:54:43;86170.75;;;18.77;46.75
43838;BME280;65998;46.256;7.534;2023-04-01T06:59:50;86173.22;;;18.83;46.41
43838;BME280;65998;46.256;7.534;2023-04-01T07:02:34;86177.59;;;18.93;45.99
43838;BME280;65998;46.256;7.534;2023-04-01T07:05:04;86186.16;;;18.89;46.16
43838;BME280;65998;46.256;7.534;2023-04-01T07:07:38;86196.88;;;18.97;45.88
43838;BME280;65998;46.256;7.534;2023-04-01T07:10:41;86181.97;;;19.02;45.73
43838;BME280;65998;46.256;7.534;2023-04-01T07:13:18;86184.63;;;19.04;45.72
43838;BME280;65998;46.256;7.534;2023-04-01T07:15:58;86178.28;;;19.06;45.70
43838;BME280;65998;46.256;7.534;2023-04-01T07:18:32;86182.41;;;19.07;45.56
43838;BME280;65998;46.256;7.534;2023-04-01T07:21:01;86190.09;;;19.06;45.44
43838;BME280;65998;46.256;7.534;2023-04-01T07:23:39;86192.00;;;19.10;45.44
43838;BME280;65998;46.256;7.534;2023-04-01T07:26:20;86189.22;;;19.10;45.30
43838;BME280;65998;46.256;7.534;2023-04-01T07:28:46;86191.44;;;19.07;45.28
43838;BME280;65998;46.256;7.534;2023-04-01T07:34:29;86184.88;;;19.13;45.05
43838;BME280;65998;46.256;7.534;2023-04-01T07:37:10;86185.53;;;19.13;44.92
43838;BME280;65998;46.256;7.534;2023-04-01T07:40:19;86190.34;;;19.15;44.84
43838;BME280;65998;46.256;7.534;2023-04-01T07:45:29;86208.03;;;19.09;44.83
43838;BME280;65998;46.256;7.534;2023-04-01T07:48:12;86205.81;;;19.12;44.89
43838;BME280;65998;46.256;7.534;2023-04-01T07:50:54;86219.72;;;19.12;44.68
43838;BME280;65998;46.256;7.534;2023-04-01T07:53:30;86221.41;;;19.07;44.80
43838;BME280;65998;46.256;7.534;2023-04-01T07:56:22;86230.31;;;19.09;44.51
43838;BME280;65998;46.256;7.534;2023-04-01T07:59:02;86221.41;;;19.07;44.64
43838;BME280;65998;46.256;7.534;2023-04-01T08:07:10;86227.94;;;19.01;44.42
43838;BME280;65998;46.256;7.534;2023-04-01T08:12:42;86228.72;;;19.00;44.48
43838;BME280;65998;46.256;7.534;2023-04-01T08:20:28;86229.28;;;19.02;44.36
43838;BME280;65998;46.256;7.534;2023-04-01T08:23:21;86233.53;;;19.01;44.18
43838;BME280;65998;46.256;7.534;2023-04-01T08:25:53;86228.16;;;18.97;44.12
43838;BME280;65998;46.256;7.534;2023-04-01T08:28:33;86227.38;;;18.99;44.00
43838;BME280;65998;46.256;7.534;2023-04-01T08:31:26;86238.53;;;18.99;43.90
43838;BME280;65998;46.256;7.534;2023-04-01T08:33:53;86238.63;;;18.97;43.88
43838;BME280;65998;46.256;7.534;2023-04-01T08:36:32;86246.97;;;18.97;43.93
43838;BME280;65998;46.256;7.534;2023-04-01T08:39:06;86242.19;;;18.95;43.83
43838;BME280;65998;46.256;7.534;2023-04-01T08:41:53;86235.94;;;18.95;43.83
43838;BME280;65998;46.256;7.534;2023-04-01T08:52:52;86236.38;;;18.87;43.78
43838;BME280;65998;46.256;7.534;2023-04-01T09:07:29;86240.56;;;18.73;43.59
43838;BME280;65998;46.256;7.534;2023-04-01T09:15:54;86241.41;;;18.69;43.58
43838;BME280;65998;46.256;7.534;2023-04-01T09:18:50;86239.50;;;18.66;43.57
43838;BME280;65998;46.256;7.534;2023-04-01T09:21:43;86245.44;;;18.58;43.59
43838;BME280;65998;46.256;7.534;2023-04-01T09:27:27;86239.22;;;18.57;43.48
43838;BME280;65998;46.256;7.534;2023-04-01T09:35:50;86238.94;;;18.48;43.59
43838;BME280;65998;46.256;7.534;2023-04-01T09:55:21;86254.81;;;18.37;43.44
43838;BME280;65998;46.256;7.534;2023-04-01T09:58:40;86256.25;;;18.36;43.54
43838;BME280;65998;46.256;7.534;2023-04-01T10:41:08;86208.66;;;18.00;43.95
43838;BME280;65998;46.256;7.534;2023-04-01T10:44:12;86216.31;;;18.00;43.78
43838;BME280;65998;46.256;7.534;2023-04-01T11:13:15;86175.06;;;17.77;43.94
43838;BME280;65998;46.256;7.534;2023-04-01T11:18:49;86175.25;;;17.73;44.12
43838;BME280;65998;46.256;7.534;2023-04-01T11:24:39;86181.69;;;17.69;44.33
43838;BME280;65998;46.256;7.534;2023-04-01T11:41:01;86164.56;;;17.63;44.32
43838;BME280;65998;46.256;7.534;2023-04-01T11:43:34;86162.84;;;17.55;44.40
43838;BME280;65998;46.256;7.534;2023-04-01T11:46:12;86158.53;;;17.58;44.45
43838;BME280;65998;46.256;7.534;2023-04-01T11:48:49;86165.53;;;17.57;44.34
43838;BME280;65998;46.256;7.534;2023-04-01T11:54:28;86150.31;;;17.56;44.42
43838;BME280;65998;46.256;7.534;2023-04-01T12:03:09;86137.97;;;17.53;44.58
43838;BME280;65998;46.256;7.534;2023-04-01T12:11:41;86123.69;;;17.46;44.60
43838;BME280;65998;46.256;7.534;2023-04-01T12:19:53;86120.44;;;17.42;44.57
43838;BME280;65998;46.256;7.534;2023-04-01T12:22:44;86120.63;;;17.38;44.92
43838;BME280;65998;46.256;7.534;2023-04-01T12:30:52;86113.56;;;17.41;44.74
43838;BME280;65998;46.256;7.534;2023-04-01T12:33:45;86112.22;;;17.40;44.93
43838;BME280;65998;46.256;7.534;2023-04-01T12:41:57;86106.28;;;17.33;44.93
43838;BME280;65998;46.256;7.534;2023-04-01T12:47:27;86103.41;;;17.35;44.97
43838;BME280;65998;46.256;7.534;2023-04-01T12:53:08;86106.28;;;17.33;45.05
43838;BME280;65998;46.256;7.534;2023-04-01T12:55:40;86109.16;;;17.31;44.98
43838;BME280;65998;46.256;7.534;2023-04-01T12:58:13;86102.34;;;17.28;45.01
43838;BME280;65998;46.256;7.534;2023-04-01T13:04:08;86098.06;;;17.31;44.90
43838;BME280;65998;46.256;7.534;2023-04-01T13:31:38;86102.75;;;17.20;44.92
43838;BME280;65998;46.256;7.534;2023-04-01T13:42:39;86113.47;;;17.13;44.93
43838;BME280;65998;46.256;7.534;2023-04-01T13:45:20;86107.06;;;17.17;44.86
43838;BME280;65998;46.256;7.534;2023-04-01T13:56:24;86103.81;;;17.12;44.96
43838;BME280;65998;46.256;7.534;2023-04-01T14:04:46;86106.00;;;17.10;44.99
43838;BME280;65998;46.256;7.534;2023-04-01T14:07:37;86099.03;;;17.11;45.03
43838;BME280;65998;46.256;7.534;2023-04-01T14:13:15;86092.91;;;17.08;45.00
43838;BME280;65998;46.256;7.534;2023-04-01T14:16:00;86091.06;;;17.03;45.22
43838;BME280;65998;46.256;7.534;2023-04-01T14:18:37;86083.53;;;17.01;45.19
43838;BME280;65998;46.256;7.534;2023-04-01T14:23:49;86074.31;;;17.05;45.09
43838;BME280;65998;46.256;7.534;2023-04-01T14:26:44;86070.22;;;17.04;45.15
43838;BME280;65998;46.256;7.534;2023-04-01T14:32:11;86064.66;;;17.04;45.33
43838;BME280;65998;46.256;7.534;2023-04-01T14:48:48;86057.50;;;16.94;45.34
43838;BME280;65998;46.256;7.534;2023-04-01T14:51:35;86053.47;;;16.91;45.14
43838;BME280;65998;46.256;7.534;2023-04-01T14:54:12;86055.69;;;16.88;44.95
43838;BME280;65998;46.256;7.534;2023-04-01T14:59:27;86046.78;;;16.86;44.25
43838;BME280;65998;46.256;7.534;2023-04-01T15:02:01;86050.97;;;16.85;44.29
43838;BME280;65998;46.256;7.534;2023-04-01T15:13:13;86047.44;;;16.86;43.02
43838;BME280;65998;46.256;7.534;2023-04-01T15:21:38;86042.09;;;16.97;43.62
43838;BME280;65998;46.256;7.534;2023-04-01T15:24:26;86044.28;;;17.09;44.02
43838;BME280;65998;46.256;7.534;2023-04-01T15:40:03;86025.81;;;17.46;45.10
43838;BME280;65998;46.256;7.534;2023-04-01T15:42:55;86017.09;;;17.54;45.34
43838;BME280;65998;46.256;7.534;2023-04-01T15:45:47;86025.88;;;17.59;45.49
43838;BME280;65998;46.256;7.534;2023-04-01T15:56:51;86021.53;;;18.04;45.80
43838;BME280;65998;46.256;7.534;2023-04-01T16:02:20;86029.38;;;18.27;45.71
43838;BME280;65998;46.256;7.534;2023-04-01T16:04:54;86023.28;;;18.37;45.71
43838;BME280;65998;46.256;7.534;2023-04-01T16:13:24;86013.53;;;18.63;45.64
43838;BME280;65998;46.256;7.534;2023-04-01T16:16:04;86017.34;;;18.70;45.55
43838;BME280;65998;46.256;7.534;2023-04-01T16:37:51;86000.63;;;19.21;46.93
43838;BME280;65998;46.256;7.534;2023-04-01T16:40:37;86004.53;;;19.26;47.57
43838;BME280;65998;46.256;7.534;2023-04-01T16:48:52;86010.50;;;19.43;48.51
43838;BME280;65998;46.256;7.534;2023-04-01T16:51:23;86014.84;;;19.40;48.76
43838;BME280;65998;46.256;7.534;2023-04-01T16:54:13;86015.06;;;19.49;49.11
43838;BME280;65998;46.256;7.534;2023-04-01T16:56:45;86009.38;;;19.51;49.29
43838;BME280;65998;46.256;7.534;2023-04-01T16:59:34;86009.94;;;19.54;49.72
43838;BME280;65998;46.256;7.534;2023-04-01T17:04:47;86008.25;;;19.59;50.19
43838;BME280;65998;46.256;7.534;2023-04-01T17:13:11;86009.72;;;19.58;50.61
43838;BME280;65998;46.256;7.534;2023-04-01T17:21:17;86023.19;;;19.66;50.59
43838;BME280;65998;46.256;7.534;2023-04-01T17:26:49;86032.09;;;19.68;50.74
43838;BME280;65998;46.256;7.534;2023-04-01T17:29:43;86030.09;;;19.67;50.83
43838;BME280;65998;46.256;7.534;2023-04-01T17:47:27;86047.13;;;19.73;51.21
43838;BME280;65998;46.256;7.534;2023-04-01T17:53:13;86052.81;;;19.71;50.92
43838;BME280;65998;46.256;7.534;2023-04-01T17:58:29;86047.69;;;19.76;50.46
43838;BME280;65998;46.256;7.534;2023-04-01T18:01:09;86047.69;;;19.76;50.48
43838;BME280;65998;46.256;7.534;2023-04-01T18:09:25;86060.28;;;19.75;50.09
43838;BME280;65998;46.256;7.534;2023-04-01T18:23:59;86071.00;;;19.70;49.80
43838;BME280;65998;46.256;7.534;2023-04-01T18:26:31;86067.66;;;19.68;49.72
43838;BME280;65998;46.256;7.534;2023-04-01T18:37:39;86077.34;;;19.69;49.46
43838;BME280;65998;46.256;7.534;2023-04-01T18:40:16;86077.47;;;19.67;49.54
43838;BME280;65998;46.256;7.534;2023-04-01T18:45:44;86089.50;;;19.63;49.30
43838;BME280;65998;46.256;7.534;2023-04-01T18:51:01;86100.66;;;19.63;49.14
43838;BME280;65998;46.256;7.534;2023-04-01T18:56:06;86115.81;;;19.66;49.01
43838;BME280;65998;46.256;7.534;2023-04-01T19:01:36;86123.16;;;19.72;48.73
43838;BME280;65998;46.256;7.534;2023-04-01T19:04:33;86121.41;;;19.79;48.76
43838;BME280;65998;46.256;7.534;2023-04-01T19:07:39;86124.75;;;19.82;48.57
43838;BME280;65998;46.256;7.534;2023-04-01T19:13:11;86124.81;;;19.92;48.46
43838;BME280;65998;46.256;7.534;2023-04-01T19:20:52;86133.16;;;20.05;48.48
43838;BME280;65998;46.256;7.534;2023-04-01T19:23:48;86125.56;;;20.16;47.94
43838;BME280;65998;46.256;7.534;2023-04-01T19:26:28;86123.75;;;20.23;48.22
43838;BME280;65998;46.256;7.534;2023-04-01T19:29:39;86128.19;;;20.31;48.29
43838;BME280;65998;46.256;7.534;2023-04-01T19:32:16;86132.75;;;20.36;48.22
43838;BME280;65998;46.256;7.534;2023-04-01T19:34:57;86136.97;;;20.48;48.15
43838;BME280;65998;46.256;7.534;2023-04-01T19:37:31;86132.25;;;20.57;47.89
43838;BME280;65998;46.256;7.534;2023-04-01T19:43:03;86139.41;;;20.78;48.03
43838;BME280;65998;46.256;7.534;2023-04-01T19:48:44;86139.91;;;20.93;48.11
43838;BME280;65998;46.256;7.534;2023-04-01T19:56:37;86132.53;;;21.11;47.89
43838;BME280;65998;46.256;7.534;2023-04-01T20:01:37;86145.22;;;21.20;47.53
43838;BME280;65998;46.256;7.534;2023-04-01T20:04:17;86147.22;;;21.22;47.53
43838;BME280;65998;46.256;7.534;2023-04-01T20:07:06;86148.47;;;21.25;47.46
43838;BME280;65998;46.256;7.534;2023-04-01T20:10:04;86146.22;;;21.27;47.22
43838;BME280;65998;46.256;7.534;2023-04-01T20:15:03;86149.53;;;21.30;47.28
43838;BME280;65998;46.256;7.534;2023-04-01T20:25:38;86163.16;;;21.36;46.85
43838;BME280;65998;46.256;7.534;2023-04-01T20:39:16;86165.41;;;21.33;46.65
43838;BME280;65998;46.256;7.534;2023-04-01T20:50:37;86166.19;;;21.32;46.86
43838;BME280;65998;46.256;7.534;2023-04-01T21:21:07;86183.50;;;21.11;47.74
43838;BME280;65998;46.256;7.534;2023-04-01T21:29:34;86180.47;;;21.15;47.79
43838;BME280;65998;46.256;7.534;2023-04-01T21:32:30;86174.88;;;21.15;47.66
43838;BME280;65998;46.256;7.534;2023-04-01T22:00:38;86190.91;;;21.04;47.78
43838;BME280;65998;46.256;7.534;2023-04-01T22:05:55;86189.25;;;20.96;47.67
43838;BME280;65998;46.256;7.534;2023-04-01T22:16:42;86188.06;;;20.93;46.87
43838;BME280;65998;46.256;7.534;2023-04-01T22:19:19;86197.88;;;20.92;46.71
43838;BME280;65998;46.256;7.534;2023-04-01T22:27:55;86204.38;;;20.89;47.22
43838;BME280;65998;46.256;7.534;2023-04-01T22:30:31;86201.72;;;20.87;46.97
43838;BME280;65998;46.256;7.534;2023-04-01T22:33:07;86196.25;;;20.85;46.84
43838;BME280;65998;46.256;7.534;2023-04-01T22:38:43;86200.81;;;20.78;47.02
43838;BME280;65998;46.256;7.534;2023-04-01T22:41:19;86196.56;;;20.79;47.18
43838;BME280;65998;46.256;7.534;2023-04-01T22:43:50;86198.81;;;20.76;48.01
43838;BME280;65998;46.256;7.534;2023-04-01T22:46:44;86196.69;;;20.77;47.67
43838;BME280;65998;46.256;7.534;2023-04-01T22:49:38;86199.59;;;20.75;49.00
43838;BME280;65998;46.256;7.534;2023-04-01T22:52:26;86199.72;;;20.72;49.27
43838;BME280;65998;46.256;7.534;2023-04-01T22:55:00;86195.59;;;20.71;49.54
43838;BME280;65998;46.256;7.534;2023-04-01T22:57:42;86206.09;;;20.71;49.60
43838;BME280;65998;46.256;7.534;2023-04-01T23:00:13;86202.88;;;20.66;49.46
43838;BME280;65998;46.256;7.534;2023-04-01T23:02:43;86197.84;;;20.69;49.27
43838;BME280;65998;46.256;7.534;2023-04-01T23:05:17;86204.22;;;20.67;49.04
43838;BME280;65998;46.256;7.534;2023-04-01T23:10:17;86198.75;;;20.65;48.87
43838;BME280;65998;46.256;7.534;2023-04-01T23:12:45;86199.66;;;20.62;48.90
43838;BME280;65998;46.256;7.534;2023-04-01T23:15:13;86202.44;;;20.62;49.67
43838;BME280;65998;46.256;7.534;2023-04-01T23:26:20;86213.84;;;20.58;49.00
43838;BME280;65998;46.256;7.534;2023-04-01T23:28:54;86213.19;;;20.57;48.94
43838;BME280;65998;46.256;7.534;2023-04-01T23:31:33;86211.41;;;20.52;48.51
43838;BME280;65998;46.256;7.534;2023-04-01T23:36:45;86219.22;;;20.49;48.32
43838;BME280;65998;46.256;7.534;2023-04-01T23:39:44;86207.41;;;20.49;48.86
43838;BME280;65998;46.256;7.534;2023-04-01T23:44:37;86221.81;;;20.40;48.49